Time;durP1;ratioP1;P1;durP2;ratioP2;P2;SDS_P1;SDS_P2;PMS_P1;PMS_P2;Temp;Humidity;BMP_temperature;BMP_pressure;BME280_temperature;BME280_humidity;BME280_pressure;Samples;Min_cycle;Max_cycle;Signal;HPM_P1;HPM_P2
2021/12/27 00:00:14;;;;;;;29.15;16.80;;;3.70;99.90;;;;;;5034775;28;20148;-81
2021/12/27 00:02:41;;;;;;;27.55;17.52;;;3.70;99.90;;;;;;5034824;28;20025;-80
2021/12/27 00:05:07;;;;;;;28.15;17.13;;;3.70;99.90;;;;;;5034367;28;20037;-80
2021/12/27 00:07:33;;;;;;;28.70;17.02;;;3.80;99.90;;;;;;5034213;28;20425;-80
2021/12/27 00:10:00;;;;;;;28.23;16.40;;;3.80;99.90;;;;;;5034474;28;20113;-80
2021/12/27 00:12:26;;;;;;;25.92;16.95;;;3.80;99.90;;;;;;5034972;28;20053;-79
2021/12/27 00:14:52;;;;;;;25.80;16.58;;;3.80;99.90;;;;;;5034286;28;20025;-79
2021/12/27 00:17:18;;;;;;;25.45;16.90;;;3.90;99.90;;;;;;5034139;28;20389;-78
2021/12/27 00:19:43;;;;;;;27.67;16.67;;;3.90;99.90;;;;;;5035154;28;20064;-78
2021/12/27 00:22:09;;;;;;;26.48;16.65;;;3.90;99.90;;;;;;5034328;28;20029;-78
2021/12/27 00:24:34;;;;;;;25.92;16.67;;;3.80;99.90;;;;;;5034435;28;20481;-79
2021/12/27 00:27:00;;;;;;;25.00;16.48;;;3.90;99.90;;;;;;5034311;28;20025;-79
2021/12/27 00:29:26;;;;;;;26.90;16.00;;;3.90;99.90;;;;;;5033883;28;20346;-79
2021/12/27 00:31:51;;;;;;;23.42;15.77;;;3.90;99.90;;;;;;5034255;28;20144;-79
2021/12/27 00:34:17;;;;;;;25.73;16.17;;;3.90;99.90;;;;;;5034263;28;20030;-78
2021/12/27 00:36:42;;;;;;;24.92;16.58;;;3.90;99.90;;;;;;5033972;28;20488;-78
2021/12/27 00:39:08;;;;;;;26.20;16.17;;;3.90;99.90;;;;;;5030914;28;20076;-79
2021/12/27 00:41:34;;;;;;;23.85;16.27;;;4.00;99.90;;;;;;5041646;28;20036;-79
2021/12/27 00:44:00;;;;;;;25.58;16.23;;;4.00;99.90;;;;;;5045773;28;20496;-78
2021/12/27 00:46:25;;;;;;;25.73;17.23;;;4.00;99.90;;;;;;5033311;28;20029;-78
2021/12/27 00:48:51;;;;;;;24.60;16.00;;;3.90;99.90;;;;;;5033653;28;20057;-78
2021/12/27 00:51:16;;;;;;;24.13;16.23;;;3.90;99.90;;;;;;5033511;28;20025;-78
2021/12/27 00:53:45;;;;;;;26.40;16.15;;;3.90;99.90;;;;;;5033410;28;20420;-79
2021/12/27 00:56:11;;;;;;;25.27;16.50;;;4.00;99.90;;;;;;5033635;28;20055;-79
2021/12/27 00:58:36;;;;;;;26.13;15.88;;;4.00;99.90;;;;;;5034003;28;20022;-78
2021/12/27 01:01:03;;;;;;;26.08;17.10;;;4.00;99.90;;;;;;5033577;28;20119;-78
2021/12/27 01:03:28;;;;;;;26.50;16.42;;;4.10;99.90;;;;;;5033208;28;20029;-78
2021/12/27 01:05:55;;;;;;;25.88;16.17;;;4.00;99.90;;;;;;5033609;28;20088;-78
2021/12/27 01:08:21;;;;;;;24.42;16.90;;;4.00;99.90;;;;;;5032531;28;20037;-78
2021/12/27 01:13:40;;;;;;;24.60;16.50;;;4.00;99.90;;;;;;5031054;28;20040;-79
2021/12/27 01:18:35;;;;;;;23.83;16.58;;;4.10;99.90;;;;;;5032528;28;20377;-79
2021/12/27 01:21:01;;;;;;;23.52;15.43;;;4.10;99.90;;;;;;5032642;28;20538;-78
2021/12/27 01:23:27;;;;;;;26.20;15.60;;;4.10;99.90;;;;;;5032988;28;20029;-79
2021/12/27 01:25:53;;;;;;;24.50;15.43;;;4.10;99.90;;;;;;5033460;28;20065;-79
2021/12/27 01:28:19;;;;;;;27.35;16.23;;;4.10;99.90;;;;;;5032918;28;20029;-79
2021/12/27 01:30:49;;;;;;;27.50;16.63;;;4.10;99.90;;;;;;5033032;28;20476;-78
2021/12/27 01:33:17;;;;;;;27.85;15.70;;;4.10;99.90;;;;;;5033042;28;20025;-78
2021/12/27 01:35:43;;;;;;;24.88;15.98;;;4.10;99.90;;;;;;5032386;28;20037;-78
2021/12/27 01:38:11;;;;;;;27.88;15.18;;;4.10;99.90;;;;;;5033010;28;20481;-77
2021/12/27 01:40:38;;;;;;;24.00;15.70;;;4.10;99.90;;;;;;5048697;28;20029;-78
2021/12/27 01:43:11;;;;;;;25.50;17.10;;;4.10;99.90;;;;;;5032711;28;20429;-79
2021/12/27 01:45:46;;;;;;;26.70;16.20;;;4.10;99.90;;;;;;5032378;28;20417;-79
2021/12/27 01:48:14;;;;;;;24.85;16.75;;;4.10;99.90;;;;;;5032395;28;20381;-80
2021/12/27 01:50:43;;;;;;;23.42;15.63;;;4.10;99.90;;;;;;5032359;28;20025;-79
2021/12/27 01:53:10;;;;;;;25.98;16.02;;;4.10;99.90;;;;;;5032783;28;20034;-78
2021/12/27 01:55:36;;;;;;;24.73;16.45;;;4.10;99.90;;;;;;5033001;28;20037;-78
2021/12/27 01:58:03;;;;;;;25.40;15.50;;;4.20;99.90;;;;;;5032278;28;20029;-79
2021/12/27 02:00:29;;;;;;;27.75;16.20;;;4.20;99.90;;;;;;5032193;28;20021;-78
2021/12/27 02:02:54;;;;;;;22.65;15.45;;;4.20;99.90;;;;;;5032688;28;20029;-79
2021/12/27 02:05:20;;;;;;;24.13;15.27;;;4.10;99.90;;;;;;5032322;28;20570;-79
2021/12/27 02:07:46;;;;;;;26.52;16.10;;;4.10;99.90;;;;;;5032190;28;20500;-78
2021/12/27 02:10:13;;;;;;;26.50;16.13;;;4.10;99.90;;;;;;5031871;28;20022;-79
2021/12/27 02:12:40;;;;;;;27.48;16.50;;;4.10;99.90;;;;;;5029468;28;20033;-79
2021/12/27 02:15:09;;;;;;;24.40;16.17;;;4.10;99.90;;;;;;5031854;28;20025;-79
2021/12/27 02:17:37;;;;;;;28.30;15.77;;;4.10;99.90;;;;;;5032040;28;20056;-79
2021/12/27 02:20:08;;;;;;;25.15;15.85;;;4.10;99.90;;;;;;5032697;28;20128;-80
2021/12/27 02:22:36;;;;;;;25.77;15.77;;;4.10;99.90;;;;;;5031886;28;20477;-80
2021/12/27 02:25:05;;;;;;;24.83;15.73;;;4.10;99.90;;;;;;5031984;28;20030;-79
2021/12/27 02:27:31;;;;;;;25.27;16.17;;;4.10;99.90;;;;;;5031751;28;20029;-79
2021/12/27 02:29:57;;;;;;;26.65;16.95;;;4.10;99.90;;;;;;5031321;28;20063;-79
2021/12/27 02:32:22;;;;;;;25.83;15.82;;;4.20;99.90;;;;;;5032407;28;20029;-79
2021/12/27 02:34:48;;;;;;;26.25;16.35;;;4.20;99.90;;;;;;5031961;28;20045;-79
2021/12/27 02:37:14;;;;;;;22.83;15.85;;;4.20;99.90;;;;;;5039547;28;20501;-80
2021/12/27 02:39:39;;;;;;;25.85;16.17;;;4.20;99.90;;;;;;5039188;28;20079;-79
2021/12/27 02:42:06;;;;;;;23.65;15.60;;;4.30;99.90;;;;;;5032180;28;20040;-80
2021/12/27 02:44:34;;;;;;;23.17;15.20;;;4.20;99.90;;;;;;5031408;28;20033;-79
2021/12/27 02:47:00;;;;;;;24.77;15.18;;;4.20;99.90;;;;;;5029034;28;20037;-79
2021/12/27 02:49:25;;;;;;;26.13;15.70;;;4.30;99.90;;;;;;5031549;28;20032;-79
2021/12/27 02:51:52;;;;;;;22.25;15.35;;;4.30;99.90;;;;;;5031810;28;20492;-79
2021/12/27 02:54:18;;;;;;;23.92;16.45;;;4.30;99.90;;;;;;5030135;28;20124;-79
2021/12/27 02:56:44;;;;;;;25.95;15.27;;;4.30;99.90;;;;;;5032066;28;20112;-79
2021/12/27 02:59:09;;;;;;;23.17;15.32;;;4.30;99.90;;;;;;5031438;28;20021;-79
2021/12/27 03:01:35;;;;;;;24.80;15.75;;;4.30;99.90;;;;;;5031308;28;20028;-79
2021/12/27 03:04:01;;;;;;;25.90;15.57;;;4.40;99.90;;;;;;5031328;28;20431;-79
2021/12/27 03:06:26;;;;;;;24.95;14.90;;;4.40;99.90;;;;;;5031617;28;20060;-79
2021/12/27 03:08:52;;;;;;;23.75;15.00;;;4.50;99.90;;;;;;5031421;28;20113;-79
2021/12/27 03:11:18;;;;;;;22.65;14.80;;;4.50;99.90;;;;;;5031983;28;20468;-79
2021/12/27 03:13:47;;;;;;;20.17;14.40;;;4.50;99.90;;;;;;5031810;28;20380;-79
2021/12/27 03:16:16;;;;;;;25.30;16.63;;;4.50;99.90;;;;;;5030491;28;20112;-79
2021/12/27 03:18:48;;;;;;;22.35;15.25;;;4.50;99.90;;;;;;5031793;28;20036;-79
2021/12/27 03:21:14;;;;;;;24.08;14.68;;;4.50;99.90;;;;;;5031854;28;20040;-79
2021/12/27 03:23:42;;;;;;;27.35;16.80;;;4.50;99.90;;;;;;5031756;28;20491;-79
2021/12/27 03:26:08;;;;;;;25.42;15.68;;;4.50;99.90;;;;;;5029010;28;20419;-79
2021/12/27 03:28:35;;;;;;;22.63;15.50;;;4.50;99.90;;;;;;5031720;28;20060;-79
2021/12/27 03:31:01;;;;;;;23.80;15.50;;;4.50;99.90;;;;;;5031499;28;20033;-79
2021/12/27 03:33:27;;;;;;;23.58;14.95;;;4.50;99.90;;;;;;5031447;28;20435;-79
2021/12/27 03:36:04;;;;;;;27.40;15.25;;;4.60;99.90;;;;;;5041756;28;20026;-79
2021/12/27 03:38:36;;;;;;;24.70;15.38;;;4.60;99.90;;;;;;5032249;28;20025;-79
2021/12/27 03:41:05;;;;;;;24.23;15.50;;;4.60;99.90;;;;;;5033536;28;20029;-78
2021/12/27 03:43:31;;;;;;;26.88;15.00;;;4.60;99.90;;;;;;5035316;28;20139;-78
2021/12/27 03:45:56;;;;;;;23.05;14.15;;;4.60;99.90;;;;;;5034942;28;20025;-78
2021/12/27 03:48:22;;;;;;;29.70;16.38;;;4.60;99.90;;;;;;5035077;28;20036;-78
2021/12/27 03:50:48;;;;;;;27.85;14.68;;;4.60;99.90;;;;;;5034203;28;20033;-79
2021/12/27 03:53:14;;;;;;;26.65;15.20;;;4.60;99.90;;;;;;5034357;28;20376;-79
2021/12/27 03:55:40;;;;;;;30.90;16.40;;;4.60;99.90;;;;;;5034786;28;20041;-78
2021/12/27 03:58:09;;;;;;;29.08;15.65;;;4.70;99.90;;;;;;5035002;28;20487;-78
2021/12/27 04:01:01;;;;;;;30.60;15.75;;;4.70;99.90;;;;;;5034793;28;20129;-78
2021/12/27 04:03:29;;;;;;;31.50;16.37;;;4.60;99.90;;;;;;5034720;28;20645;-80
2021/12/27 04:05:55;;;;;;;26.60;15.95;;;4.60;99.90;;;;;;5031738;28;20071;-79
2021/12/27 04:08:22;;;;;;;34.58;15.77;;;4.60;99.90;;;;;;5034430;28;20057;-80
2021/12/27 04:10:48;;;;;;;36.63;16.27;;;4.70;99.90;;;;;;5034468;28;20029;-79
2021/12/27 04:13:18;;;;;;;34.67;17.88;;;4.70;99.90;;;;;;5034698;28;20091;-79
2021/12/27 04:15:45;;;;;;;33.85;17.50;;;4.70;99.90;;;;;;5034647;28;20099;-79
2021/12/27 04:18:11;;;;;;;34.78;17.20;;;4.60;99.90;;;;;;5034753;28;20075;-79
2021/12/27 04:20:37;;;;;;;34.65;17.25;;;4.60;99.90;;;;;;5033930;28;20022;-79
2021/12/27 04:23:03;;;;;;;38.72;18.05;;;4.60;99.90;;;;;;5034119;28;20428;-79
2021/12/27 04:25:29;;;;;;;36.22;16.88;;;4.60;99.90;;;;;;5033848;28;20432;-79
2021/12/27 04:27:55;;;;;;;35.08;18.10;;;4.60;99.90;;;;;;5034343;28;20023;-79
2021/12/27 04:30:21;;;;;;;37.67;18.95;;;4.60;99.90;;;;;;5034112;28;20052;-79
2021/12/27 04:32:47;;;;;;;35.83;17.38;;;4.60;99.90;;;;;;5039542;28;20053;-80
2021/12/27 04:35:14;;;;;;;43.58;19.33;;;4.70;99.90;;;;;;5039306;28;20060;-80
2021/12/27 04:37:40;;;;;;;38.47;17.63;;;4.80;99.90;;;;;;5032832;28;20030;-79
2021/12/27 04:40:08;;;;;;;44.42;18.50;;;4.80;99.90;;;;;;5033459;28;20140;-80
2021/12/27 04:42:34;;;;;;;40.05;19.30;;;4.80;99.90;;;;;;5033968;28;20029;-80
2021/12/27 04:45:02;;;;;;;39.30;19.38;;;4.80;99.90;;;;;;5033408;28;20503;-80
2021/12/27 04:47:28;;;;;;;47.25;20.27;;;4.80;99.90;;;;;;5033678;28;20021;-79
2021/12/27 04:49:54;;;;;;;42.45;20.67;;;4.80;99.90;;;;;;5033388;28;20465;-79
2021/12/27 04:52:20;;;;;;;41.03;20.17;;;4.80;99.90;;;;;;5031817;28;20036;-80
2021/12/27 04:54:46;;;;;;;47.42;20.67;;;4.80;99.90;;;;;;5033184;28;20056;-79
2021/12/27 04:57:11;;;;;;;44.55;21.42;;;4.80;99.90;;;;;;5033753;28;20037;-79
2021/12/27 04:59:37;;;;;;;44.92;21.23;;;4.80;99.90;;;;;;5033828;28;20123;-79
2021/12/27 05:02:03;;;;;;;40.45;20.20;;;4.80;99.90;;;;;;5033644;28;20048;-80
2021/12/27 05:04:30;;;;;;;43.08;21.67;;;4.80;99.90;;;;;;5030285;28;20101;-79
2021/12/27 05:06:55;;;;;;;42.05;19.35;;;4.80;99.90;;;;;;5033203;28;20026;-79
2021/12/27 05:09:22;;;;;;;43.00;21.27;;;4.80;99.90;;;;;;5033249;28;20021;-79
2021/12/27 05:11:48;;;;;;;37.92;20.73;;;4.90;99.90;;;;;;5033176;28;20048;-79
2021/12/27 05:14:15;;;;;;;42.35;20.60;;;4.90;99.90;;;;;;5033893;28;20464;-79
2021/12/27 05:16:41;;;;;;;40.05;20.33;;;4.90;99.90;;;;;;5032603;28;20086;-79
2021/12/27 05:19:07;;;;;;;40.60;21.00;;;4.90;99.90;;;;;;5032997;28;20021;-80
2021/12/27 05:21:32;;;;;;;43.63;20.25;;;4.90;99.90;;;;;;5033274;28;20033;-80
2021/12/27 05:23:58;;;;;;;41.42;20.95;;;5.00;99.90;;;;;;5030196;28;20159;-80
2021/12/27 05:26:24;;;;;;;45.45;22.20;;;4.90;99.90;;;;;;5032520;28;20032;-79
2021/12/27 05:28:49;;;;;;;43.75;21.83;;;4.90;99.90;;;;;;5032993;28;20021;-79
2021/12/27 05:31:15;;;;;;;40.70;22.15;;;4.90;99.90;;;;;;5033887;28;20029;-79
2021/12/27 05:33:41;;;;;;;41.63;20.25;;;5.00;99.90;;;;;;5033471;28;20033;-79
2021/12/27 05:36:06;;;;;;;34.75;19.30;;;5.00;99.90;;;;;;5032473;28;20040;-79
2021/12/27 05:38:32;;;;;;;38.05;20.63;;;5.00;99.90;;;;;;5032751;28;20028;-79
2021/12/27 05:40:58;;;;;;;37.63;21.05;;;5.10;99.90;;;;;;5032485;28;20029;-79
2021/12/27 05:43:24;;;;;;;40.33;20.45;;;5.10;99.90;;;;;;5032842;28;20083;-79
2021/12/27 05:45:50;;;;;;;34.00;19.65;;;5.10;99.90;;;;;;5032523;28;20056;-79
2021/12/27 05:48:16;;;;;;;35.70;19.75;;;5.10;99.90;;;;;;5032581;28;20108;-78
2021/12/27 05:50:43;;;;;;;40.60;22.27;;;5.10;99.90;;;;;;5031912;28;20112;-78
2021/12/27 05:53:08;;;;;;;35.53;20.35;;;5.10;99.90;;;;;;5032842;28;20022;-78
2021/12/27 05:55:34;;;;;;;37.28;20.42;;;5.10;99.90;;;;;;5032815;28;20030;-78
2021/12/27 05:58:00;;;;;;;35.72;20.30;;;5.10;99.90;;;;;;5032736;28;20047;-79
2021/12/27 06:00:26;;;;;;;36.20;19.58;;;5.10;99.90;;;;;;5032389;28;20436;-77
2021/12/27 06:02:54;;;;;;;34.35;18.95;;;5.20;99.90;;;;;;5028211;28;20416;-77
2021/12/27 06:05:23;;;;;;;34.47;19.73;;;5.20;99.90;;;;;;5032070;28;20095;-78
2021/12/27 06:07:50;;;;;;;33.67;19.60;;;5.20;99.90;;;;;;5032385;28;20112;-78
2021/12/27 06:10:16;;;;;;;34.20;19.55;;;5.20;99.90;;;;;;5031866;28;20039;-76
2021/12/27 06:12:42;;;;;;;37.17;19.67;;;5.20;99.90;;;;;;5032699;28;20025;-77
2021/12/27 06:15:09;;;;;;;30.65;19.52;;;5.20;99.90;;;;;;5032294;28;20036;-78
2021/12/27 06:17:34;;;;;;;35.53;20.20;;;5.20;99.90;;;;;;5032038;28;20028;-79
2021/12/27 06:20:02;;;;;;;33.35;19.58;;;5.20;99.90;;;;;;5032523;28;20022;-80
2021/12/27 06:22:28;;;;;;;39.08;20.20;;;5.10;99.90;;;;;;5032949;28;20018;-79
2021/12/27 06:24:54;;;;;;;37.78;19.35;;;5.10;99.90;;;;;;5032326;28;20029;-79
2021/12/27 06:27:20;;;;;;;37.15;20.63;;;5.10;99.90;;;;;;5036615;28;20025;-78
2021/12/27 06:29:45;;;;;;;33.78;20.77;;;5.10;99.90;;;;;;5034283;28;20484;-79
2021/12/27 06:32:13;;;;;;;40.95;22.90;;;5.10;99.90;;;;;;5032351;28;20033;-79
2021/12/27 06:34:40;;;;;;;38.20;21.83;;;5.10;99.90;;;;;;5029481;28;20021;-79
2021/12/27 06:37:06;;;;;;;40.28;22.17;;;5.10;99.90;;;;;;5031830;28;20037;-78
2021/12/27 06:39:32;;;;;;;38.17;22.40;;;5.10;99.90;;;;;;5031963;28;20108;-78
2021/12/27 06:41:58;;;;;;;41.28;22.42;;;5.10;99.90;;;;;;5031784;28;20056;-78
2021/12/27 06:44:23;;;;;;;37.58;22.58;;;5.20;99.90;;;;;;5032222;28;20488;-78
2021/12/27 06:46:49;;;;;;;41.55;23.20;;;5.20;99.90;;;;;;5032314;28;20068;-78
2021/12/27 06:49:15;;;;;;;38.60;22.38;;;5.20;99.90;;;;;;5031594;28;20052;-78
2021/12/27 06:51:40;;;;;;;41.10;23.33;;;5.20;99.90;;;;;;5031324;28;20033;-78
2021/12/27 06:54:06;;;;;;;38.30;22.15;;;5.30;99.90;;;;;;5031599;28;20033;-78
2021/12/27 06:56:32;;;;;;;37.67;22.33;;;5.30;99.90;;;;;;5031593;28;20041;-78
2021/12/27 06:58:59;;;;;;;39.92;22.17;;;5.30;99.90;;;;;;5031810;28;20026;-78
2021/12/27 07:01:24;;;;;;;43.22;22.83;;;5.40;99.90;;;;;;5031739;28;20022;-78
2021/12/27 07:03:50;;;;;;;40.60;23.98;;;5.40;99.90;;;;;;5031453;28;20025;-77
2021/12/27 07:06:16;;;;;;;41.33;23.40;;;5.40;99.90;;;;;;5031703;28;20175;-77
2021/12/27 07:08:42;;;;;;;43.78;23.73;;;5.40;99.90;;;;;;5031708;28;20030;-76
2021/12/27 07:11:07;;;;;;;39.67;22.83;;;5.40;99.90;;;;;;5031946;28;20365;-77
2021/12/27 07:13:33;;;;;;;38.13;22.27;;;5.40;99.90;;;;;;5031918;28;20030;-77
2021/12/27 07:15:59;;;;;;;37.28;21.90;;;5.40;99.90;;;;;;5033438;28;20044;-77
2021/12/27 07:18:24;;;;;;;44.80;23.02;;;5.50;99.90;;;;;;5035124;28;20026;-77
2021/12/27 07:20:54;;;;;;;40.90;23.02;;;5.50;99.90;;;;;;5035868;28;20562;-76
2021/12/27 07:23:20;;;;;;;40.55;23.00;;;5.50;99.90;;;;;;5035326;28;20519;-75
2021/12/27 07:25:46;;;;;;;40.80;20.88;;;5.50;99.90;;;;;;5035869;28;20035;-76
2021/12/27 07:28:12;;;;;;;36.63;22.00;;;5.50;99.90;;;;;;5035912;28;20029;-76
2021/12/27 07:30:37;;;;;;;38.03;22.42;;;5.50;99.90;;;;;;5035730;28;20029;-78
2021/12/27 07:33:03;;;;;;;33.58;21.85;;;5.60;99.90;;;;;;5034541;28;20030;-79
2021/12/27 07:35:28;;;;;;;35.53;21.38;;;5.60;99.90;;;;;;5034673;28;20120;-79
2021/12/27 07:37:54;;;;;;;33.40;20.70;;;5.50;99.90;;;;;;5034750;28;20060;-80
2021/12/27 07:40:20;;;;;;;35.75;21.85;;;5.60;99.90;;;;;;5033384;28;20052;-79
2021/12/27 07:42:46;;;;;;;36.30;21.85;;;5.60;99.90;;;;;;5035130;28;20394;-79
2021/12/27 07:45:11;;;;;;;34.78;21.55;;;5.60;99.90;;;;;;5034574;28;20464;-79
2021/12/27 07:47:37;;;;;;;38.42;20.75;;;5.60;99.90;;;;;;5034251;28;20025;-79
2021/12/27 07:50:05;;;;;;;35.53;21.40;;;5.60;99.90;;;;;;5033878;28;20036;-79
2021/12/27 07:52:32;;;;;;;38.38;22.63;;;5.60;99.90;;;;;;5034496;28;20091;-79
2021/12/27 07:54:57;;;;;;;38.05;21.15;;;5.60;99.90;;;;;;5034330;28;20509;-79
2021/12/27 07:57:23;;;;;;;37.10;22.33;;;5.60;99.90;;;;;;5034714;28;20099;-79
2021/12/27 07:59:49;;;;;;;35.17;21.67;;;5.60;99.90;;;;;;5034429;28;20036;-78
2021/12/27 08:02:16;;;;;;;31.85;20.20;;;5.60;99.90;;;;;;5034905;28;20378;-78
2021/12/27 08:04:43;;;;;;;34.97;21.50;;;5.60;99.90;;;;;;5034534;28;20029;-81
2021/12/27 08:07:08;;;;;;;39.15;22.30;;;5.70;99.90;;;;;;5034199;28;20389;-81
2021/12/27 08:09:34;;;;;;;35.88;19.58;;;5.60;99.90;;;;;;5034365;28;20032;-75
2021/12/27 08:12:00;;;;;;;36.15;21.90;;;5.70;99.90;;;;;;5034940;28;20032;-79
2021/12/27 08:14:26;;;;;;;32.75;19.88;;;5.70;99.90;;;;;;5033622;28;20388;-84
2021/12/27 08:16:51;;;;;;;33.83;20.90;;;5.80;99.90;;;;;;5033868;28;20045;-81
2021/12/27 08:19:17;;;;;;;34.20;20.77;;;5.90;99.90;;;;;;5034196;28;20032;-81
2021/12/27 08:21:43;;;;;;;31.00;17.10;;;5.90;99.90;;;;;;5033892;28;20068;-79
2021/12/27 08:24:09;;;;;;;34.28;20.50;;;6.00;99.90;;;;;;5033464;28;20025;-82
2021/12/27 08:26:35;;;;;;;29.10;18.25;;;6.00;99.90;;;;;;5028000;28;20029;-83
2021/12/27 08:29:04;;;;;;;30.35;18.58;;;6.10;99.90;;;;;;5032849;28;20488;-83
2021/12/27 08:31:29;;;;;;;27.88;18.63;;;6.10;99.90;;;;;;5033760;28;20045;-80
2021/12/27 08:33:55;;;;;;;31.00;17.10;;;6.10;99.90;;;;;;5033523;28;20031;-80
2021/12/27 08:36:21;;;;;;;26.88;16.75;;;6.20;99.90;;;;;;5029200;28;20162;-78
2021/12/27 08:38:48;;;;;;;27.58;16.40;;;6.20;99.90;;;;;;5033557;28;20025;-77
2021/12/27 08:41:15;;;;;;;25.77;16.23;;;6.30;99.90;;;;;;5029523;28;20045;-81
2021/12/27 08:43:41;;;;;;;24.02;16.27;;;6.30;99.90;;;;;;5022217;28;20038;-80
2021/12/27 08:46:07;;;;;;;24.95;15.88;;;6.30;99.90;;;;;;5018343;28;20516;-81
2021/12/27 08:48:33;;;;;;;25.80;14.52;;;6.30;99.90;;;;;;5032631;28;20432;-80
2021/12/27 08:50:59;;;;;;;26.73;16.75;;;6.40;99.90;;;;;;5032476;28;20038;-80
2021/12/27 08:53:25;;;;;;;22.77;14.95;;;6.40;99.90;;;;;;5032900;28;20152;-81
2021/12/27 08:55:51;;;;;;;27.73;16.92;;;6.40;99.90;;;;;;5033418;28;20417;-81
2021/12/27 08:58:17;;;;;;;20.65;12.93;;;6.40;99.90;;;;;;5029988;28;20024;-82
2021/12/27 09:00:43;;;;;;;22.95;15.57;;;6.40;99.90;;;;;;5022157;28;20037;-83
2021/12/27 09:03:11;;;;;;;20.77;13.95;;;6.50;99.90;;;;;;5019624;28;20033;-82
2021/12/27 09:05:38;;;;;;;18.48;13.18;;;6.50;99.90;;;;;;5027436;28;20477;-84
2021/12/27 09:08:04;;;;;;;25.35;14.85;;;6.50;99.90;;;;;;5028159;28;20036;-81
2021/12/27 09:10:30;;;;;;;21.70;13.57;;;6.60;99.90;;;;;;5034103;28;20385;-89
2021/12/27 09:12:55;;;;;;;21.55;13.90;;;6.60;99.90;;;;;;5035290;28;20037;-93
2021/12/27 09:15:21;;;;;;;20.67;13.95;;;6.70;99.90;;;;;;5035569;28;20101;-89
2021/12/27 09:17:48;;;;;;;24.48;14.98;;;6.70;99.90;;;;;;5034454;28;20025;-81
2021/12/27 09:20:14;;;;;;;18.58;12.45;;;6.70;99.90;;;;;;5038357;28;20034;-80
2021/12/27 09:22:42;;;;;;;17.30;11.82;;;6.80;99.90;;;;;;5040241;28;20480;-79
2021/12/27 09:25:08;;;;;;;20.92;13.60;;;6.80;99.90;;;;;;5033402;28;20027;-79
2021/12/27 09:27:33;;;;;;;15.30;11.68;;;6.80;99.90;;;;;;5032899;28;20488;-79
2021/12/27 09:30:00;;;;;;;19.45;13.25;;;6.90;99.90;;;;;;5033035;28;20060;-76
2021/12/27 09:32:25;;;;;;;19.75;13.40;;;6.80;99.90;;;;;;5032794;28;20041;-77
2021/12/27 09:34:51;;;;;;;17.77;13.32;;;6.80;99.90;;;;;;5032925;28;20026;-76
2021/12/27 09:37:17;;;;;;;20.55;12.65;;;6.90;99.90;;;;;;5032371;28;20056;-80
2021/12/27 09:39:42;;;;;;;18.30;12.02;;;6.90;99.90;;;;;;5031731;28;20468;-74
2021/12/27 09:42:08;;;;;;;17.83;13.10;;;7.00;99.90;;;;;;5032516;28;20032;-75
2021/12/27 09:44:34;;;;;;;17.08;12.98;;;7.00;99.90;;;;;;5032097;28;20057;-76
2021/12/27 09:47:00;;;;;;;19.63;12.68;;;7.00;99.90;;;;;;5031664;28;20030;-80
2021/12/27 09:49:29;;;;;;;20.25;12.48;;;7.00;99.90;;;;;;5030124;28;20032;-72
2021/12/27 09:51:59;;;;;;;18.63;12.85;;;7.10;99.90;;;;;;5032545;28;20029;-73
2021/12/27 09:54:28;;;;;;;17.30;12.32;;;7.10;99.90;;;;;;5031927;28;20056;-73
2021/12/27 09:56:54;;;;;;;17.95;12.45;;;7.10;99.90;;;;;;5032359;28;20527;-77
2021/12/27 09:59:20;;;;;;;17.23;12.50;;;7.20;99.90;;;;;;5032007;28;20400;-77
2021/12/27 10:01:46;;;;;;;17.42;12.05;;;7.20;99.90;;;;;;5031039;28;20039;-76
2021/12/27 10:04:12;;;;;;;16.38;11.60;;;7.20;99.90;;;;;;5031875;28;20017;-76
2021/12/27 10:06:38;;;;;;;15.02;11.07;;;7.30;99.90;;;;;;5032279;28;20084;-76
2021/12/27 10:09:05;;;;;;;17.27;11.00;;;7.30;99.90;;;;;;5032812;28;20017;-76
2021/12/27 10:11:34;;;;;;;16.40;11.57;;;7.30;99.90;;;;;;5032532;28;20039;-76
2021/12/27 10:14:02;;;;;;;16.40;11.88;;;7.40;99.90;;;;;;5031407;28;20028;-75
2021/12/27 10:16:30;;;;;;;18.13;12.25;;;7.40;99.90;;;;;;5031221;28;20380;-76
2021/12/27 10:18:57;;;;;;;16.48;10.68;;;7.40;99.90;;;;;;5031578;28;20116;-75
2021/12/27 10:21:24;;;;;;;17.38;11.88;;;7.40;99.90;;;;;;5029337;28;20477;-74
2021/12/27 10:24:12;;;;;;;15.00;11.68;;;7.40;99.90;;;;;;5031071;28;20055;-75
2021/12/27 10:26:38;;;;;;;17.63;12.40;;;7.40;99.90;;;;;;5031505;28;20021;-74
2021/12/27 10:29:17;;;;;;;18.63;12.77;;;7.50;99.90;;;;;;5031774;28;20436;-75
2021/12/27 10:31:58;;;;;;;16.40;11.77;;;7.50;99.90;;;;;;5029262;28;20029;-75
2021/12/27 10:35:03;;;;;;;15.80;11.02;;;7.40;99.90;;;;;;5031734;28;20033;-77
2021/12/27 10:37:34;;;;;;;17.52;12.63;;;7.40;99.90;;;;;;5030014;28;20504;-76
2021/12/27 10:40:02;;;;;;;21.00;13.43;;;7.40;99.90;;;;;;5031414;28;20030;-76
2021/12/27 10:42:35;;;;;;;20.63;13.30;;;7.50;99.90;;;;;;5031683;28;20022;-76
2021/12/27 10:45:06;;;;;;;19.48;13.65;;;7.50;99.90;;;;;;5033188;28;20358;-76
2021/12/27 10:47:53;;;;;;;16.88;10.77;;;7.50;99.90;;;;;;5032972;28;20022;-77
2021/12/27 10:50:31;;;;;;;16.05;11.30;;;7.50;99.90;;;;;;5034546;28;20026;-77
2021/12/27 10:53:07;;;;;;;17.23;12.10;;;7.60;99.90;;;;;;5035835;28;20029;-77
2021/12/27 10:55:43;;;;;;;17.27;11.20;;;7.70;99.90;;;;;;5034407;28;20407;-77
2021/12/27 10:58:10;;;;;;;17.40;11.77;;;7.70;99.90;;;;;;5037456;28;20032;-73
2021/12/27 11:00:37;;;;;;;16.55;11.82;;;7.70;99.90;;;;;;5036443;28;20357;-75
2021/12/27 11:03:03;;;;;;;16.00;11.45;;;7.80;99.90;;;;;;5036138;28;20037;-76
2021/12/27 11:05:31;;;;;;;16.38;11.10;;;7.80;99.90;;;;;;5027638;28;20030;-78
2021/12/27 11:08:00;;;;;;;16.52;12.13;;;7.80;99.90;;;;;;5017127;28;20018;-78
2021/12/27 11:10:28;;;;;;;13.75;10.27;;;7.80;99.90;;;;;;5017249;28;20363;-85
2021/12/27 11:12:54;;;;;;;14.55;10.60;;;7.80;99.90;;;;;;5032861;28;20025;-76
2021/12/27 11:15:19;;;;;;;14.23;10.68;;;7.90;99.90;;;;;;5037142;28;20091;-79
2021/12/27 11:17:46;;;;;;;11.90;9.75;;;7.90;99.90;;;;;;5032874;28;20040;-79
2021/12/27 11:20:13;;;;;;;14.48;9.68;;;7.90;99.90;;;;;;5035228;28;20052;-83
2021/12/27 11:22:42;;;;;;;14.98;10.32;;;8.00;99.90;;;;;;5033436;28;20032;-79
2021/12/27 11:25:23;;;;;;;16.27;10.43;;;8.00;99.90;;;;;;5034699;28;20488;-75
2021/12/27 11:27:49;;;;;;;13.43;10.20;;;8.00;99.90;;;;;;5035318;28;20028;-79
2021/12/27 11:30:16;;;;;;;12.48;9.35;;;8.10;99.90;;;;;;5035119;28;20025;-90
2021/12/27 11:33:12;;;;;;;14.88;7.30;;;8.10;99.90;;;;;;5035638;28;20041;-79
2021/12/27 11:36:01;;;;;;;13.77;9.77;;;8.20;99.90;;;;;;5033650;28;20033;-83
2021/12/27 11:38:31;;;;;;;12.68;8.75;;;8.60;99.90;;;;;;5035697;28;20029;-84
2021/12/27 11:40:57;;;;;;;14.13;9.52;;;8.60;99.90;;;;;;5036033;28;20028;-86
2021/12/27 11:43:23;;;;;;;13.23;9.48;;;8.60;99.90;;;;;;5036243;28;20025;-86
2021/12/27 11:45:57;;;;;;;13.75;9.55;;;8.60;99.90;;;;;;5036121;28;20108;-86
2021/12/27 11:48:24;;;;;;;10.35;8.05;;;8.50;99.90;;;;;;5036187;28;20025;-85
2021/12/27 11:50:56;;;;;;;10.20;7.88;;;8.30;99.90;;;;;;5036107;28;20029;-91
2021/12/27 11:53:55;;;;;;;12.77;8.75;;;8.30;99.90;;;;;;5035913;28;20033;-78
2021/12/27 11:56:50;;;;;;;14.13;10.32;;;8.30;99.90;;;;;;5033375;28;20091;-81
2021/12/27 11:59:25;;;;;;;15.55;10.20;;;8.20;99.90;;;;;;5027948;28;20451;-78
2021/12/27 12:02:03;;;;;;;14.35;10.02;;;8.10;99.90;;;;;;5033964;28;20025;-75
2021/12/27 12:04:42;;;;;;;14.07;10.15;;;8.00;99.90;;;;;;5034569;28;20383;-75
2021/12/27 12:07:09;;;;;;;14.35;10.18;;;8.00;99.90;;;;;;5034576;28;20017;-78
2021/12/27 12:09:50;;;;;;;14.55;10.27;;;7.90;99.90;;;;;;5032911;28;20018;-75
2021/12/27 12:12:15;;;;;;;17.70;10.15;;;8.00;99.90;;;;;;5034770;28;20021;-76
2021/12/27 12:14:42;;;;;;;14.32;10.25;;;8.00;99.90;;;;;;5032351;28;20029;-75
2021/12/27 12:17:15;;;;;;;15.23;10.73;;;8.10;99.90;;;;;;5034402;28;20037;-76
2021/12/27 12:19:49;;;;;;;14.77;10.48;;;8.10;99.90;;;;;;5034454;28;20025;-75
2021/12/27 12:22:38;;;;;;;13.98;10.20;;;8.10;99.90;;;;;;5031479;28;20033;-75
2021/12/27 12:25:11;;;;;;;13.55;10.02;;;8.10;99.90;;;;;;5033978;28;20112;-76
2021/12/27 12:27:36;;;;;;;13.82;10.50;;;8.00;99.90;;;;;;5034297;28;20025;-74
2021/12/27 12:30:03;;;;;;;12.48;8.73;;;8.00;99.90;;;;;;5033996;28;20047;-76
2021/12/27 12:32:29;;;;;;;13.52;10.80;;;8.10;99.90;;;;;;5032490;28;20105;-78
2021/12/27 12:34:54;;;;;;;14.48;10.70;;;8.20;99.90;;;;;;5031534;28;20453;-75
2021/12/27 12:37:20;;;;;;;16.92;10.98;;;8.20;99.90;;;;;;5033323;28;20041;-77
2021/12/27 12:39:52;;;;;;;12.05;8.75;;;8.20;99.90;;;;;;5033961;28;20026;-75
2021/12/27 12:42:24;;;;;;;14.38;10.00;;;8.30;99.90;;;;;;5033292;28;20026;-76
2021/12/27 12:44:59;;;;;;;12.70;10.18;;;8.40;99.90;;;;;;5034028;28;20037;-76